Details for Norwegian Air Shuttle at LIRF




Go Back


Latest METAR
Local Time

LIRF 212320Z 07003KT CAVOK 22/20 Q1015 NOSIG

22/06/2018, 01:31:45

Description
Results
Norwegian Air Shuttle Logo
Number of Pilots based at LIRF
0 Pilots Based here
Number of Norwegian Air Shuttle Flights Departed from LIRF
0 Flights Departed
Number of Norwegian Air Shuttle Flights Arrived at LIRF
0 Flights Arrived
Number of Norwegian Air Shuttle Schedules Departing from LIRF
9 Schedules
Number of Norwegian Air Shuttle Schedules Arriving at LIRF
10 Schedules
Number of Norwegian Air Shuttle Schedules Departing from LIRF availible today
3 Schedules Today
Number of Norwegian Air Shuttle Schedules Arriving at LIRF availible today
3 Schedules Today
Average Landing Rate at LIRF
-187 fpm
Norwegian Air Shuttle Average Landing Rate at LIRF
0 fpm
Total Fuel Purchased at LIRF by Norwegian Air Shuttle
0.00 kgs / 0.00 lbs

Pilots Based at LIRF


Pilot ID
Pilot Name
Pilot Rank
No. of Flights
No. of Flying Hours
There are no pilots assigned to this hub!   Will you be the first?
Content